sensor_id;sensor_type;location;lat;lon;timestamp;temperature;humidity
13880;DHT22;7010;48.200;16.332;2022-07-19T00:01:21;20.80;68.20
13880;DHT22;7010;48.200;16.332;2022-07-19T00:03:55;20.80;68.20
13880;DHT22;7010;48.200;16.332;2022-07-19T00:06:28;20.70;68.00
13880;DHT22;7010;48.200;16.332;2022-07-19T00:09:03;20.70;68.20
13880;DHT22;7010;48.200;16.332;2022-07-19T00:11:43;20.60;68.40
13880;DHT22;7010;48.200;16.332;2022-07-19T00:14:16;20.60;69.00
13880;DHT22;7010;48.200;16.332;2022-07-19T00:16:51;20.60;69.10
13880;DHT22;7010;48.200;16.332;2022-07-19T00:19:19;20.50;69.10
13880;DHT22;7010;48.200;16.332;2022-07-19T00:21:50;20.50;69.10
13880;DHT22;7010;48.200;16.332;2022-07-19T00:24:24;20.50;69.10
13880;DHT22;7010;48.200;16.332;2022-07-19T00:27:00;20.50;68.60
13880;DHT22;7010;48.200;16.332;2022-07-19T00:29:37;20.50;67.90
13880;DHT22;7010;48.200;16.332;2022-07-19T00:32:21;20.50;67.90
13880;DHT22;7010;48.200;16.332;2022-07-19T00:34:49;20.50;67.60
13880;DHT22;7010;48.200;16.332;2022-07-19T00:37:26;20.50;67.00
13880;DHT22;7010;48.200;16.332;2022-07-19T00:40:04;20.50;67.60
13880;DHT22;7010;48.200;16.332;2022-07-19T00:42:38;20.50;67.90
13880;DHT22;7010;48.200;16.332;2022-07-19T00:45:07;20.40;67.80
13880;DHT22;7010;48.200;16.332;2022-07-19T00:47:35;20.40;68.10
13880;DHT22;7010;48.200;16.332;2022-07-19T00:50:04;20.40;68.50
13880;DHT22;7010;48.200;16.332;2022-07-19T00:52:40;20.40;68.20
13880;DHT22;7010;48.200;16.332;2022-07-19T00:55:16;20.40;67.80
13880;DHT22;7010;48.200;16.332;2022-07-19T00:58:15;20.40;67.60
13880;DHT22;7010;48.200;16.332;2022-07-19T01:00:50;20.40;67.80
13880;DHT22;7010;48.200;16.332;2022-07-19T01:03:34;20.40;68.90
13880;DHT22;7010;48.200;16.332;2022-07-19T01:06:15;20.30;69.30
13880;DHT22;7010;48.200;16.332;2022-07-19T01:09:04;20.20;69.60
13880;DHT22;7010;48.200;16.332;2022-07-19T01:11:58;20.10;69.50
13880;DHT22;7010;48.200;16.332;2022-07-19T01:14:35;20.10;69.70
13880;DHT22;7010;48.200;16.332;2022-07-19T01:17:30;20.10;69.60
13880;DHT22;7010;48.200;16.332;2022-07-19T01:20:16;20.00;70.10
13880;DHT22;7010;48.200;16.332;2022-07-19T01:23:07;20.00;70.00
13880;DHT22;7010;48.200;16.332;2022-07-19T01:25:53;20.00;70.50
13880;DHT22;7010;48.200;16.332;2022-07-19T01:28:42;19.90;70.80
13880;DHT22;7010;48.200;16.332;2022-07-19T01:31:34;19.90;70.90
13880;DHT22;7010;48.200;16.332;2022-07-19T01:34:21;19.90;71.10
13880;DHT22;7010;48.200;16.332;2022-07-19T01:37:10;19.90;71.10
13880;DHT22;7010;48.200;16.332;2022-07-19T01:40:06;19.80;71.10
13880;DHT22;7010;48.200;16.332;2022-07-19T01:42:44;19.80;71.50
13880;DHT22;7010;48.200;16.332;2022-07-19T01:45:19;19.80;71.80
13880;DHT22;7010;48.200;16.332;2022-07-19T01:48:03;19.80;72.00
13880;DHT22;7010;48.200;16.332;2022-07-19T01:50:42;19.70;72.40
13880;DHT22;7010;48.200;16.332;2022-07-19T01:53:23;19.70;72.70
13880;DHT22;7010;48.200;16.332;2022-07-19T01:56:13;19.70;73.10
13880;DHT22;7010;48.200;16.332;2022-07-19T01:59:04;19.60;73.80
13880;DHT22;7010;48.200;16.332;2022-07-19T02:01:49;19.50;74.10
13880;DHT22;7010;48.200;16.332;2022-07-19T02:04:24;19.50;74.40
13880;DHT22;7010;48.200;16.332;2022-07-19T02:06:56;19.40;74.60
13880;DHT22;7010;48.200;16.332;2022-07-19T02:09:25;19.40;74.70
13880;DHT22;7010;48.200;16.332;2022-07-19T02:12:10;19.40;74.90
13880;DHT22;7010;48.200;16.332;2022-07-19T02:14:51;19.40;74.90
13880;DHT22;7010;48.200;16.332;2022-07-19T02:17:32;19.40;74.60
13880;DHT22;7010;48.200;16.332;2022-07-19T02:20:07;19.30;74.70
13880;DHT22;7010;48.200;16.332;2022-07-19T02:25:24;19.30;74.20
13880;DHT22;7010;48.200;16.332;2022-07-19T02:28:10;19.30;75.40
13880;DHT22;7010;48.200;16.332;2022-07-19T02:30:53;19.30;75.80
13880;DHT22;7010;48.200;16.332;2022-07-19T02:33:37;19.20;76.50
13880;DHT22;7010;48.200;16.332;2022-07-19T02:36:22;19.20;75.90
13880;DHT22;7010;48.200;16.332;2022-07-19T02:38:55;19.20;76.30
13880;DHT22;7010;48.200;16.332;2022-07-19T02:41:35;19.20;76.40
13880;DHT22;7010;48.200;16.332;2022-07-19T02:44:15;19.10;76.20
13880;DHT22;7010;48.200;16.332;2022-07-19T02:46:53;19.10;76.40
13880;DHT22;7010;48.200;16.332;2022-07-19T02:49:34;19.10;76.70
13880;DHT22;7010;48.200;16.332;2022-07-19T02:52:17;19.00;76.00
13880;DHT22;7010;48.200;16.332;2022-07-19T02:54:57;19.00;76.30
13880;DHT22;7010;48.200;16.332;2022-07-19T02:57:46;19.00;76.20
13880;DHT22;7010;48.200;16.332;2022-07-19T03:00:34;19.00;76.70
13880;DHT22;7010;48.200;16.332;2022-07-19T03:03:16;19.00;77.20
13880;DHT22;7010;48.200;16.332;2022-07-19T03:06:05;19.00;76.90
13880;DHT22;7010;48.200;16.332;2022-07-19T03:08:42;19.00;77.20
13880;DHT22;7010;48.200;16.332;2022-07-19T03:11:17;19.00;77.20
13880;DHT22;7010;48.200;16.332;2022-07-19T03:14:01;19.00;77.20
13880;DHT22;7010;48.200;16.332;2022-07-19T03:16:37;19.00;77.10
13880;DHT22;7010;48.200;16.332;2022-07-19T03:19:23;18.90;76.80
13880;DHT22;7010;48.200;16.332;2022-07-19T03:21:59;18.90;77.10
13880;DHT22;7010;48.200;16.332;2022-07-19T03:24:34;18.90;77.70
13880;DHT22;7010;48.200;16.332;2022-07-19T03:27:27;18.90;78.10
13880;DHT22;7010;48.200;16.332;2022-07-19T03:30:08;19.00;78.50
13880;DHT22;7010;48.200;16.332;2022-07-19T03:32:56;18.90;78.80
13880;DHT22;7010;48.200;16.332;2022-07-19T03:35:39;18.90;78.90
13880;DHT22;7010;48.200;16.332;2022-07-19T03:38:20;18.90;79.10
13880;DHT22;7010;48.200;16.332;2022-07-19T03:40:58;18.90;79.70
13880;DHT22;7010;48.200;16.332;2022-07-19T03:43:43;18.90;80.10
13880;DHT22;7010;48.200;16.332;2022-07-19T03:46:18;18.90;80.40
13880;DHT22;7010;48.200;16.332;2022-07-19T03:49:00;18.90;80.60
13880;DHT22;7010;48.200;16.332;2022-07-19T03:51:40;18.90;80.50
13880;DHT22;7010;48.200;16.332;2022-07-19T03:54:25;18.90;80.70
13880;DHT22;7010;48.200;16.332;2022-07-19T03:57:12;19.00;80.50
13880;DHT22;7010;48.200;16.332;2022-07-19T03:59:58;18.90;80.60
13880;DHT22;7010;48.200;16.332;2022-07-19T04:02:29;18.90;80.80
13880;DHT22;7010;48.200;16.332;2022-07-19T04:05:06;18.90;81.20
13880;DHT22;7010;48.200;16.332;2022-07-19T04:07:48;19.00;81.50
13880;DHT22;7010;48.200;16.332;2022-07-19T04:10:17;19.00;81.30
13880;DHT22;7010;48.200;16.332;2022-07-19T04:12:54;19.00;81.50
13880;DHT22;7010;48.200;16.332;2022-07-19T04:15:41;19.00;81.70
13880;DHT22;7010;48.200;16.332;2022-07-19T04:18:12;19.10;81.70
13880;DHT22;7010;48.200;16.332;2022-07-19T04:20:42;19.10;81.80
13880;DHT22;7010;48.200;16.332;2022-07-19T04:23:11;19.10;81.70
13880;DHT22;7010;48.200;16.332;2022-07-19T04:25:39;19.10;81.70
13880;DHT22;7010;48.200;16.332;2022-07-19T04:28:11;19.10;81.90
13880;DHT22;7010;48.200;16.332;2022-07-19T04:31:03;19.20;82.50
13880;DHT22;7010;48.200;16.332;2022-07-19T04:33:52;19.20;82.40
13880;DHT22;7010;48.200;16.332;2022-07-19T04:36:36;19.30;82.30
13880;DHT22;7010;48.200;16.332;2022-07-19T04:39:04;19.30;82.30
13880;DHT22;7010;48.200;16.332;2022-07-19T04:41:33;19.30;82.60
13880;DHT22;7010;48.200;16.332;2022-07-19T04:44:01;19.40;82.70
13880;DHT22;7010;48.200;16.332;2022-07-19T04:46:30;19.40;82.90
13880;DHT22;7010;48.200;16.332;2022-07-19T04:48:58;19.40;82.40
13880;DHT22;7010;48.200;16.332;2022-07-19T04:51:36;19.50;82.50
13880;DHT22;7010;48.200;16.332;2022-07-19T04:54:11;19.50;82.40
13880;DHT22;7010;48.200;16.332;2022-07-19T04:56:49;19.60;82.50
13880;DHT22;7010;48.200;16.332;2022-07-19T04:59:21;19.60;82.40
13880;DHT22;7010;48.200;16.332;2022-07-19T05:01:49;19.60;82.50
13880;DHT22;7010;48.200;16.332;2022-07-19T05:04:19;19.60;82.40
13880;DHT22;7010;48.200;16.332;2022-07-19T05:06:47;19.60;82.60
13880;DHT22;7010;48.200;16.332;2022-07-19T05:09:28;19.70;82.40
13880;DHT22;7010;48.200;16.332;2022-07-19T05:11:57;19.70;82.30
13880;DHT22;7010;48.200;16.332;2022-07-19T05:14:25;19.70;82.40
13880;DHT22;7010;48.200;16.332;2022-07-19T05:16:53;19.80;82.30
13880;DHT22;7010;48.200;16.332;2022-07-19T05:19:21;19.90;81.70
13880;DHT22;7010;48.200;16.332;2022-07-19T05:21:50;19.90;81.50
13880;DHT22;7010;48.200;16.332;2022-07-19T05:24:18;20.00;81.30
13880;DHT22;7010;48.200;16.332;2022-07-19T05:26:48;20.10;80.70
13880;DHT22;7010;48.200;16.332;2022-07-19T05:29:16;20.20;79.30
13880;DHT22;7010;48.200;16.332;2022-07-19T05:31:52;20.30;78.10
13880;DHT22;7010;48.200;16.332;2022-07-19T05:34:20;20.50;77.20
13880;DHT22;7010;48.200;16.332;2022-07-19T05:36:49;20.60;76.90
13880;DHT22;7010;48.200;16.332;2022-07-19T05:39:17;20.80;76.30
13880;DHT22;7010;48.200;16.332;2022-07-19T05:41:46;20.90;75.80
13880;DHT22;7010;48.200;16.332;2022-07-19T05:44:15;20.90;75.60
13880;DHT22;7010;48.200;16.332;2022-07-19T05:46:44;21.00;75.70
13880;DHT22;7010;48.200;16.332;2022-07-19T05:49:12;21.10;75.70
13880;DHT22;7010;48.200;16.332;2022-07-19T05:51:41;21.10;75.60
13880;DHT22;7010;48.200;16.332;2022-07-19T05:54:10;21.20;75.60
13880;DHT22;7010;48.200;16.332;2022-07-19T05:56:38;21.30;75.30
13880;DHT22;7010;48.200;16.332;2022-07-19T05:59:07;21.40;75.40
13880;DHT22;7010;48.200;16.332;2022-07-19T06:01:39;21.50;75.30
13880;DHT22;7010;48.200;16.332;2022-07-19T06:04:13;21.50;74.90
13880;DHT22;7010;48.200;16.332;2022-07-19T06:06:47;21.60;74.60
13880;DHT22;7010;48.200;16.332;2022-07-19T06:09:32;21.70;74.60
13880;DHT22;7010;48.200;16.332;2022-07-19T06:12:00;21.80;74.80
13880;DHT22;7010;48.200;16.332;2022-07-19T06:14:28;21.80;74.80
13880;DHT22;7010;48.200;16.332;2022-07-19T06:16:58;21.90;75.30
13880;DHT22;7010;48.200;16.332;2022-07-19T06:19:26;22.00;74.40
13880;DHT22;7010;48.200;16.332;2022-07-19T06:21:57;22.20;74.20
13880;DHT22;7010;48.200;16.332;2022-07-19T06:24:36;22.30;73.90
13880;DHT22;7010;48.200;16.332;2022-07-19T06:27:10;22.40;73.50
13880;DHT22;7010;48.200;16.332;2022-07-19T06:29:48;22.50;73.30
13880;DHT22;7010;48.200;16.332;2022-07-19T06:32:26;22.60;72.70
13880;DHT22;7010;48.200;16.332;2022-07-19T06:34:57;22.70;72.50
13880;DHT22;7010;48.200;16.332;2022-07-19T06:37:28;22.90;72.40
13880;DHT22;7010;48.200;16.332;2022-07-19T06:39:56;22.90;71.70
13880;DHT22;7010;48.200;16.332;2022-07-19T06:42:25;23.00;71.50
13880;DHT22;7010;48.200;16.332;2022-07-19T06:44:53;23.20;71.30
13880;DHT22;7010;48.200;16.332;2022-07-19T06:47:27;23.30;71.10
13880;DHT22;7010;48.200;16.332;2022-07-19T06:49:55;23.40;70.50
13880;DHT22;7010;48.200;16.332;2022-07-19T06:52:46;23.60;70.50
13880;DHT22;7010;48.200;16.332;2022-07-19T06:55:20;23.60;70.00
13880;DHT22;7010;48.200;16.332;2022-07-19T06:57:50;23.70;70.50
13880;DHT22;7010;48.200;16.332;2022-07-19T07:00:24;23.80;69.80
13880;DHT22;7010;48.200;16.332;2022-07-19T07:03:06;23.90;69.50
13880;DHT22;7010;48.200;16.332;2022-07-19T07:05:38;24.20;69.60
13880;DHT22;7010;48.200;16.332;2022-07-19T07:08:12;24.40;69.00
13880;DHT22;7010;48.200;16.332;2022-07-19T07:10:52;24.50;68.50
13880;DHT22;7010;48.200;16.332;2022-07-19T07:13:24;24.70;68.00
13880;DHT22;7010;48.200;16.332;2022-07-19T07:16:06;24.90;67.60
13880;DHT22;7010;48.200;16.332;2022-07-19T07:18:45;25.40;67.10
13880;DHT22;7010;48.200;16.332;2022-07-19T07:21:20;25.60;66.30
13880;DHT22;7010;48.200;16.332;2022-07-19T07:23:59;25.80;65.50
13880;DHT22;7010;48.200;16.332;2022-07-19T07:26:36;26.00;64.90
13880;DHT22;7010;48.200;16.332;2022-07-19T07:29:16;26.40;64.40
13880;DHT22;7010;48.200;16.332;2022-07-19T07:31:49;27.40;62.80
13880;DHT22;7010;48.200;16.332;2022-07-19T07:34:25;28.70;59.80
13880;DHT22;7010;48.200;16.332;2022-07-19T07:37:09;29.30;57.90
13880;DHT22;7010;48.200;16.332;2022-07-19T07:39:40;30.50;56.60
13880;DHT22;7010;48.200;16.332;2022-07-19T07:42:09;31.60;54.40
13880;DHT22;7010;48.200;16.332;2022-07-19T07:44:39;32.50;53.40
13880;DHT22;7010;48.200;16.332;2022-07-19T07:47:07;34.40;51.00
13880;DHT22;7010;48.200;16.332;2022-07-19T07:49:38;36.40;49.10
13880;DHT22;7010;48.200;16.332;2022-07-19T07:52:06;37.90;46.10
13880;DHT22;7010;48.200;16.332;2022-07-19T07:54:35;38.90;44.20
13880;DHT22;7010;48.200;16.332;2022-07-19T07:57:25;40.30;42.50
13880;DHT22;7010;48.200;16.332;2022-07-19T08:00:03;41.50;40.30
13880;DHT22;7010;48.200;16.332;2022-07-19T08:02:44;41.40;39.10
13880;DHT22;7010;48.200;16.332;2022-07-19T08:05:20;42.10;37.90
13880;DHT22;7010;48.200;16.332;2022-07-19T08:07:51;42.20;38.10
13880;DHT22;7010;48.200;16.332;2022-07-19T08:10:22;42.70;37.00
13880;DHT22;7010;48.200;16.332;2022-07-19T08:12:54;43.50;36.40
13880;DHT22;7010;48.200;16.332;2022-07-19T08:15:22;44.30;35.90
13880;DHT22;7010;48.200;16.332;2022-07-19T08:17:51;43.70;35.20
13880;DHT22;7010;48.200;16.332;2022-07-19T08:20:21;43.80;35.90
13880;DHT22;7010;48.200;16.332;2022-07-19T08:22:49;44.40;34.60
13880;DHT22;7010;48.200;16.332;2022-07-19T08:25:18;44.60;34.80
13880;DHT22;7010;48.200;16.332;2022-07-19T08:27:49;45.10;33.30
13880;DHT22;7010;48.200;16.332;2022-07-19T08:30:17;45.70;33.00
13880;DHT22;7010;48.200;16.332;2022-07-19T08:32:46;46.50;33.10
13880;DHT22;7010;48.200;16.332;2022-07-19T08:35:15;46.60;33.50
13880;DHT22;7010;48.200;16.332;2022-07-19T08:37:47;46.70;32.70
13880;DHT22;7010;48.200;16.332;2022-07-19T08:40:20;46.40;32.50
13880;DHT22;7010;48.200;16.332;2022-07-19T08:42:52;45.70;32.70
13880;DHT22;7010;48.200;16.332;2022-07-19T08:45:22;46.10;33.00
13880;DHT22;7010;48.200;16.332;2022-07-19T08:47:51;46.00;31.70
13880;DHT22;7010;48.200;16.332;2022-07-19T08:50:29;46.00;31.90
13880;DHT22;7010;48.200;16.332;2022-07-19T08:53:01;46.10;31.70
13880;DHT22;7010;48.200;16.332;2022-07-19T08:55:30;46.60;31.60
13880;DHT22;7010;48.200;16.332;2022-07-19T08:57:59;46.80;30.50
13880;DHT22;7010;48.200;16.332;2022-07-19T09:00:32;47.10;30.60
13880;DHT22;7010;48.200;16.332;2022-07-19T09:03:03;47.40;30.50
13880;DHT22;7010;48.200;16.332;2022-07-19T09:05:34;47.10;30.00
13880;DHT22;7010;48.200;16.332;2022-07-19T09:08:07;46.70;30.00
13880;DHT22;7010;48.200;16.332;2022-07-19T09:10:40;46.30;29.50
13880;DHT22;7010;48.200;16.332;2022-07-19T09:13:32;45.30;30.60
13880;DHT22;7010;48.200;16.332;2022-07-19T09:16:02;45.70;31.30
13880;DHT22;7010;48.200;16.332;2022-07-19T09:18:32;46.20;29.70
13880;DHT22;7010;48.200;16.332;2022-07-19T09:21:04;46.20;29.50
13880;DHT22;7010;48.200;16.332;2022-07-19T09:23:34;46.30;29.80
13880;DHT22;7010;48.200;16.332;2022-07-19T09:26:05;46.50;29.60
13880;DHT22;7010;48.200;16.332;2022-07-19T09:28:35;46.30;29.50
13880;DHT22;7010;48.200;16.332;2022-07-19T09:31:06;46.00;29.30
13880;DHT22;7010;48.200;16.332;2022-07-19T09:33:40;45.80;29.60
13880;DHT22;7010;48.200;16.332;2022-07-19T09:36:14;45.10;29.50
13880;DHT22;7010;48.200;16.332;2022-07-19T09:38:46;44.60;29.50
13880;DHT22;7010;48.200;16.332;2022-07-19T09:41:21;44.50;30.10
13880;DHT22;7010;48.200;16.332;2022-07-19T09:43:56;44.30;30.40
13880;DHT22;7010;48.200;16.332;2022-07-19T09:46:32;44.30;29.60
13880;DHT22;7010;48.200;16.332;2022-07-19T09:49:13;43.40;30.00
13880;DHT22;7010;48.200;16.332;2022-07-19T09:51:43;43.80;30.10
13880;DHT22;7010;48.200;16.332;2022-07-19T09:54:17;43.80;30.00
13880;DHT22;7010;48.200;16.332;2022-07-19T09:56:49;44.00;30.20
13880;DHT22;7010;48.200;16.332;2022-07-19T09:59:22;44.10;30.30
13880;DHT22;7010;48.200;16.332;2022-07-19T10:01:52;44.30;30.00
13880;DHT22;7010;48.200;16.332;2022-07-19T10:04:24;44.60;29.70
13880;DHT22;7010;48.200;16.332;2022-07-19T10:06:53;44.60;29.10
13880;DHT22;7010;48.200;16.332;2022-07-19T10:09:26;43.80;29.30
13880;DHT22;7010;48.200;16.332;2022-07-19T10:11:56;44.10;30.00
13880;DHT22;7010;48.200;16.332;2022-07-19T10:14:25;44.20;30.30
13880;DHT22;7010;48.200;16.332;2022-07-19T10:17:17;44.50;29.90
13880;DHT22;7010;48.200;16.332;2022-07-19T10:19:56;44.80;29.90
13880;DHT22;7010;48.200;16.332;2022-07-19T10:22:39;45.00;29.20
13880;DHT22;7010;48.200;16.332;2022-07-19T10:25:20;45.20;29.30
13880;DHT22;7010;48.200;16.332;2022-07-19T10:27:58;44.80;28.60
13880;DHT22;7010;48.200;16.332;2022-07-19T10:30:44;45.00;29.10
13880;DHT22;7010;48.200;16.332;2022-07-19T10:33:31;45.00;28.70
13880;DHT22;7010;48.200;16.332;2022-07-19T10:36:38;44.70;28.50
13880;DHT22;7010;48.200;16.332;2022-07-19T10:39:22;43.90;29.40
13880;DHT22;7010;48.200;16.332;2022-07-19T10:42:18;43.60;29.50
13880;DHT22;7010;48.200;16.332;2022-07-19T10:45:21;43.10;29.50
13880;DHT22;7010;48.200;16.332;2022-07-19T10:48:34;42.10;29.90
13880;DHT22;7010;48.200;16.332;2022-07-19T10:51:27;42.00;30.80
13880;DHT22;7010;48.200;16.332;2022-07-19T10:54:15;42.50;30.80
13880;DHT22;7010;48.200;16.332;2022-07-19T10:56:59;42.80;31.00
13880;DHT22;7010;48.200;16.332;2022-07-19T10:59:34;43.20;30.20
13880;DHT22;7010;48.200;16.332;2022-07-19T11:02:22;43.50;30.00
13880;DHT22;7010;48.200;16.332;2022-07-19T11:05:21;43.60;29.90
13880;DHT22;7010;48.200;16.332;2022-07-19T11:07:54;43.00;29.20
13880;DHT22;7010;48.200;16.332;2022-07-19T11:10:36;43.40;30.00
13880;DHT22;7010;48.200;16.332;2022-07-19T11:13:16;43.50;30.00
13880;DHT22;7010;48.200;16.332;2022-07-19T11:15:58;43.60;30.00
13880;DHT22;7010;48.200;16.332;2022-07-19T11:18:35;43.20;29.60
13880;DHT22;7010;48.200;16.332;2022-07-19T11:21:18;42.70;29.80
13880;DHT22;7010;48.200;16.332;2022-07-19T11:24:14;42.30;29.70
13880;DHT22;7010;48.200;16.332;2022-07-19T11:26:46;41.60;30.60
13880;DHT22;7010;48.200;16.332;2022-07-19T11:29:17;41.80;30.40
13880;DHT22;7010;48.200;16.332;2022-07-19T11:31:53;42.20;30.90
13880;DHT22;7010;48.200;16.332;2022-07-19T11:34:25;42.60;30.80
13880;DHT22;7010;48.200;16.332;2022-07-19T11:37:03;42.60;30.00
13880;DHT22;7010;48.200;16.332;2022-07-19T11:39:46;42.50;30.10
13880;DHT22;7010;48.200;16.332;2022-07-19T11:42:31;42.00;30.30
13880;DHT22;7010;48.200;16.332;2022-07-19T11:45:40;42.00;30.70
13880;DHT22;7010;48.200;16.332;2022-07-19T11:48:23;42.20;30.30
13880;DHT22;7010;48.200;16.332;2022-07-19T11:51:05;42.30;30.00
13880;DHT22;7010;48.200;16.332;2022-07-19T11:53:51;42.40;29.90
13880;DHT22;7010;48.200;16.332;2022-07-19T11:56:26;42.30;30.10
13880;DHT22;7010;48.200;16.332;2022-07-19T11:59:06;42.20;30.40
13880;DHT22;7010;48.200;16.332;2022-07-19T12:01:54;42.10;30.80
13880;DHT22;7010;48.200;16.332;2022-07-19T12:04:45;42.20;30.00
13880;DHT22;7010;48.200;16.332;2022-07-19T12:07:19;42.40;29.40
13880;DHT22;7010;48.200;16.332;2022-07-19T12:09:53;42.60;29.60
13880;DHT22;7010;48.200;16.332;2022-07-19T12:12:24;42.70;29.60
13880;DHT22;7010;48.200;16.332;2022-07-19T12:15:11;42.60;29.80
13880;DHT22;7010;48.200;16.332;2022-07-19T12:17:54;42.20;29.50
13880;DHT22;7010;48.200;16.332;2022-07-19T12:20:35;41.90;30.20
13880;DHT22;7010;48.200;16.332;2022-07-19T12:23:21;42.00;29.70
13880;DHT22;7010;48.200;16.332;2022-07-19T12:26:11;41.70;29.80
13880;DHT22;7010;48.200;16.332;2022-07-19T12:29:22;41.40;30.00
13880;DHT22;7010;48.200;16.332;2022-07-19T12:32:04;41.80;30.10
13880;DHT22;7010;48.200;16.332;2022-07-19T12:35:03;42.00;30.00
13880;DHT22;7010;48.200;16.332;2022-07-19T12:37:39;41.90;29.90
13880;DHT22;7010;48.200;16.332;2022-07-19T12:40:19;41.70;29.60
13880;DHT22;7010;48.200;16.332;2022-07-19T12:43:09;41.70;29.80
13880;DHT22;7010;48.200;16.332;2022-07-19T12:45:53;41.60;29.90
13880;DHT22;7010;48.200;16.332;2022-07-19T12:48:31;41.60;30.50
13880;DHT22;7010;48.200;16.332;2022-07-19T12:51:23;41.50;30.10
13880;DHT22;7010;48.200;16.332;2022-07-19T12:53:56;41.20;29.90
13880;DHT22;7010;48.200;16.332;2022-07-19T12:56:33;40.80;30.50
13880;DHT22;7010;48.200;16.332;2022-07-19T12:59:17;40.50;30.70
13880;DHT22;7010;48.200;16.332;2022-07-19T13:02:11;40.40;30.80
13880;DHT22;7010;48.200;16.332;2022-07-19T13:04:42;40.20;31.10
13880;DHT22;7010;48.200;16.332;2022-07-19T13:07:15;40.10;31.50
13880;DHT22;7010;48.200;16.332;2022-07-19T13:09:47;40.10;31.20
13880;DHT22;7010;48.200;16.332;2022-07-19T13:12:15;40.20;30.60
13880;DHT22;7010;48.200;16.332;2022-07-19T13:14:51;40.00;30.50
13880;DHT22;7010;48.200;16.332;2022-07-19T13:17:34;39.70;31.00
13880;DHT22;7010;48.200;16.332;2022-07-19T13:20:07;39.50;30.90
13880;DHT22;7010;48.200;16.332;2022-07-19T13:22:42;38.90;31.00
13880;DHT22;7010;48.200;16.332;2022-07-19T13:25:18;38.40;31.10
13880;DHT22;7010;48.200;16.332;2022-07-19T13:28:09;38.40;32.30
13880;DHT22;7010;48.200;16.332;2022-07-19T13:30:47;38.50;32.40
13880;DHT22;7010;48.200;16.332;2022-07-19T13:33:26;38.60;31.80
13880;DHT22;7010;48.200;16.332;2022-07-19T13:36:00;38.80;31.90
13880;DHT22;7010;48.200;16.332;2022-07-19T13:38:31;38.90;31.90
13880;DHT22;7010;48.200;16.332;2022-07-19T13:41:09;38.90;31.80
13880;DHT22;7010;48.200;16.332;2022-07-19T13:43:39;39.00;32.20
13880;DHT22;7010;48.200;16.332;2022-07-19T13:46:14;38.30;31.50
13880;DHT22;7010;48.200;16.332;2022-07-19T13:48:46;38.30;32.40
13880;DHT22;7010;48.200;16.332;2022-07-19T13:51:24;38.00;31.50
13880;DHT22;7010;48.200;16.332;2022-07-19T13:53:55;38.00;32.40
13880;DHT22;7010;48.200;16.332;2022-07-19T13:56:35;38.00;32.50
13880;DHT22;7010;48.200;16.332;2022-07-19T13:59:08;38.00;32.80
13880;DHT22;7010;48.200;16.332;2022-07-19T14:01:52;37.90;32.00
13880;DHT22;7010;48.200;16.332;2022-07-19T14:04:28;37.80;32.80
13880;DHT22;7010;48.200;16.332;2022-07-19T14:07:06;37.80;32.80
13880;DHT22;7010;48.200;16.332;2022-07-19T14:09:42;37.90;33.20
13880;DHT22;7010;48.200;16.332;2022-07-19T14:12:18;37.90;32.30
13880;DHT22;7010;48.200;16.332;2022-07-19T14:14:48;38.00;32.10
13880;DHT22;7010;48.200;16.332;2022-07-19T14:17:16;37.50;31.70
13880;DHT22;7010;48.200;16.332;2022-07-19T14:19:48;37.50;32.90
13880;DHT22;7010;48.200;16.332;2022-07-19T14:22:20;37.60;32.80
13880;DHT22;7010;48.200;16.332;2022-07-19T14:25:00;37.30;31.90
13880;DHT22;7010;48.200;16.332;2022-07-19T14:27:30;37.10;32.70
13880;DHT22;7010;48.200;16.332;2022-07-19T14:30:14;37.10;32.90
13880;DHT22;7010;48.200;16.332;2022-07-19T14:32:53;37.10;33.30
13880;DHT22;7010;48.200;16.332;2022-07-19T14:35:24;36.90;33.50
13880;DHT22;7010;48.200;16.332;2022-07-19T14:38:06;37.00;33.30
13880;DHT22;7010;48.200;16.332;2022-07-19T14:40:39;37.00;33.00
13880;DHT22;7010;48.200;16.332;2022-07-19T14:43:12;36.90;33.40
13880;DHT22;7010;48.200;16.332;2022-07-19T14:45:43;37.00;33.50
13880;DHT22;7010;48.200;16.332;2022-07-19T14:48:18;37.00;33.60
13880;DHT22;7010;48.200;16.332;2022-07-19T14:50:53;36.60;33.50
13880;DHT22;7010;48.200;16.332;2022-07-19T14:53:24;36.60;33.60
13880;DHT22;7010;48.200;16.332;2022-07-19T14:56:05;36.40;33.40
13880;DHT22;7010;48.200;16.332;2022-07-19T14:58:45;36.20;33.60
13880;DHT22;7010;48.200;16.332;2022-07-19T15:01:17;36.20;33.60
13880;DHT22;7010;48.200;16.332;2022-07-19T15:03:49;36.30;33.60
13880;DHT22;7010;48.200;16.332;2022-07-19T15:06:17;36.10;33.10
13880;DHT22;7010;48.200;16.332;2022-07-19T15:08:48;36.10;33.70
13880;DHT22;7010;48.200;16.332;2022-07-19T15:11:24;35.80;33.60
13880;DHT22;7010;48.200;16.332;2022-07-19T15:14:33;35.60;34.00
13880;DHT22;7010;48.200;16.332;2022-07-19T15:17:42;35.40;34.20
13880;DHT22;7010;48.200;16.332;2022-07-19T15:20:33;35.40;34.10
13880;DHT22;7010;48.200;16.332;2022-07-19T15:23:17;35.20;33.90
13880;DHT22;7010;48.200;16.332;2022-07-19T15:25:58;35.00;33.90
13880;DHT22;7010;48.200;16.332;2022-07-19T15:28:38;35.00;34.30
13880;DHT22;7010;48.200;16.332;2022-07-19T15:31:29;35.00;35.00
13880;DHT22;7010;48.200;16.332;2022-07-19T15:34:13;34.90;34.50
13880;DHT22;7010;48.200;16.332;2022-07-19T15:36:49;34.90;35.00
13880;DHT22;7010;48.200;16.332;2022-07-19T15:39:29;34.70;34.70
13880;DHT22;7010;48.200;16.332;2022-07-19T15:42:15;34.60;34.90
13880;DHT22;7010;48.200;16.332;2022-07-19T15:45:07;34.50;35.00
13880;DHT22;7010;48.200;16.332;2022-07-19T15:48:09;34.30;35.30
13880;DHT22;7010;48.200;16.332;2022-07-19T15:50:56;34.20;35.20
13880;DHT22;7010;48.200;16.332;2022-07-19T15:53:45;34.10;35.80
13880;DHT22;7010;48.200;16.332;2022-07-19T15:56:30;34.10;35.30
13880;DHT22;7010;48.200;16.332;2022-07-19T15:59:22;34.00;35.10
13880;DHT22;7010;48.200;16.332;2022-07-19T16:02:04;33.90;35.30
13880;DHT22;7010;48.200;16.332;2022-07-19T16:04:55;33.90;35.70
13880;DHT22;7010;48.200;16.332;2022-07-19T16:07:29;33.90;35.80
13880;DHT22;7010;48.200;16.332;2022-07-19T16:10:04;33.80;35.80
13880;DHT22;7010;48.200;16.332;2022-07-19T16:12:40;33.80;36.10
13880;DHT22;7010;48.200;16.332;2022-07-19T16:15:20;33.70;35.90
13880;DHT22;7010;48.200;16.332;2022-07-19T16:17:52;33.60;36.10
13880;DHT22;7010;48.200;16.332;2022-07-19T16:20:49;33.40;36.10
13880;DHT22;7010;48.200;16.332;2022-07-19T16:23:51;33.10;36.10
13880;DHT22;7010;48.200;16.332;2022-07-19T16:26:37;32.90;36.50
13880;DHT22;7010;48.200;16.332;2022-07-19T16:29:38;32.80;36.70
13880;DHT22;7010;48.200;16.332;2022-07-19T16:32:10;32.60;36.90
13880;DHT22;7010;48.200;16.332;2022-07-19T16:35:07;32.60;37.30
13880;DHT22;7010;48.200;16.332;2022-07-19T16:38:04;32.60;37.30
13880;DHT22;7010;48.200;16.332;2022-07-19T16:40:53;32.50;37.40